Time;durP1;ratioP1;P1;durP2;ratioP2;P2;SDS_P1;SDS_P2;PMS_P1;PMS_P2;Temp;Humidity;BMP_temperature;BMP_pressure;BME280_temperature;BME280_humidity;BME280_pressure;Samples;Min_cycle;Max_cycle;Signal;HPM_P1;HPM_P2
2021/01/10 00:01:15;;;;;;;38.13;16.27;;;;;;;2.32;100.00;101840.13;4930348;29;20027;-77
2021/01/10 00:03:41;;;;;;;38.13;16.92;;;;;;;2.25;100.00;101833.50;4952650;29;20093;-77
2021/01/10 00:06:08;;;;;;;39.55;17.98;;;;;;;2.32;100.00;101834.03;4953723;28;20066;-77
2021/01/10 00:08:34;;;;;;;38.85;16.00;;;;;;;2.38;100.00;101835.63;4950609;29;20058;-77
2021/01/10 00:10:59;;;;;;;39.13;16.45;;;;;;;2.27;100.00;101834.84;4952915;29;20475;-77
2021/01/10 00:13:45;;;;;;;37.60;15.50;;;;;;;2.36;100.00;101829.78;4944554;29;20040;-77
2021/01/10 00:16:10;;;;;;;36.33;15.50;;;;;;;2.43;100.00;101830.28;4942025;29;20550;-77
2021/01/10 00:18:36;;;;;;;39.38;15.93;;;;;;;2.28;100.00;101832.97;4915188;29;20040;-77
2021/01/10 00:21:02;;;;;;;36.75;15.88;;;;;;;2.31;100.00;101835.09;4938396;29;20468;-77
2021/01/10 00:23:27;;;;;;;36.95;16.05;;;;;;;2.16;100.00;101827.97;4941315;29;20164;-77
2021/01/10 00:25:53;;;;;;;37.78;15.73;;;;;;;2.09;100.00;101835.41;4926212;29;20039;-77
2021/01/10 00:28:19;;;;;;;35.00;15.40;;;;;;;2.21;100.00;101830.59;4922202;29;20047;-77
2021/01/10 00:30:44;;;;;;;34.63;13.95;;;;;;;2.36;100.00;101841.16;4935519;29;20031;-77
2021/01/10 00:33:10;;;;;;;35.58;14.55;;;;;;;2.41;100.00;101832.41;4904367;29;20054;-77
2021/01/10 00:35:35;;;;;;;35.70;14.70;;;;;;;2.32;100.00;101837.47;4949280;29;20082;-77
2021/01/10 00:38:01;;;;;;;33.67;14.13;;;;;;;2.13;100.00;101841.00;4935075;29;20031;-77
2021/01/10 00:40:27;;;;;;;37.70;15.23;;;;;;;2.24;100.00;101838.03;4915821;29;20044;-77
2021/01/10 00:42:53;;;;;;;35.83;13.07;;;;;;;2.28;100.00;101854.22;4938320;29;20082;-76
2021/01/10 00:45:25;;;;;;;36.45;14.90;;;;;;;2.04;100.00;101843.38;4938818;29;20027;-77
2021/01/10 00:47:54;;;;;;;34.22;13.52;;;;;;;1.97;100.00;101847.38;4933771;29;20117;-77
2021/01/10 00:50:25;;;;;;;36.05;13.73;;;;;;;1.92;100.00;101837.53;4923042;29;20027;-77
2021/01/10 00:52:51;;;;;;;37.13;14.10;;;;;;;1.75;100.00;101834.38;4927351;29;20051;-77
2021/01/10 00:55:17;;;;;;;37.45;14.10;;;;;;;1.97;100.00;101839.41;4934903;29;20090;-77
2021/01/10 00:57:43;;;;;;;37.80;14.73;;;;;;;1.88;100.00;101833.06;4952303;29;20062;-77
2021/01/10 01:00:13;;;;;;;35.20;14.23;;;;;;;1.93;100.00;101846.31;4950261;29;20047;-77
2021/01/10 01:02:46;;;;;;;37.90;13.93;;;;;;;1.77;100.00;101854.31;4935198;29;20031;-77
2021/01/10 01:05:12;;;;;;;36.70;14.13;;;;;;;1.63;100.00;101853.22;4948940;29;20432;-77
2021/01/10 01:07:38;;;;;;;35.67;13.85;;;;;;;1.56;100.00;101849.25;4936459;29;20026;-77
2021/01/10 01:10:04;;;;;;;39.05;14.85;;;;;;;1.74;100.00;101854.81;4932304;29;20440;-77
2021/01/10 01:12:30;;;;;;;36.78;14.35;;;;;;;1.78;100.00;101861.19;4949801;28;20063;-78
2021/01/10 01:14:55;;;;;;;43.13;15.52;;;;;;;1.83;100.00;101865.72;4931808;29;20062;-77
2021/01/10 01:17:21;;;;;;;41.83;15.50;;;;;;;1.67;100.00;101856.94;4937522;29;20384;-77
2021/01/10 01:19:47;;;;;;;37.47;14.35;;;;;;;1.89;100.00;101869.16;4934838;29;20049;-76
2021/01/10 01:22:12;;;;;;;38.38;14.18;;;;;;;1.90;100.00;101873.41;4933510;29;20032;-77
2021/01/10 01:24:38;;;;;;;36.35;13.77;;;;;;;1.97;100.00;101868.63;4952321;28;20035;-77
2021/01/10 01:27:03;;;;;;;35.53;14.73;;;;;;;2.09;100.00;101879.78;4939014;29;20122;-76
2021/01/10 01:29:29;;;;;;;34.22;13.88;;;;;;;1.99;100.00;101885.91;4948239;29;20039;-77
2021/01/10 01:31:54;;;;;;;32.20;13.55;;;;;;;1.90;100.00;101884.81;4952003;29;20031;-77
2021/01/10 01:34:20;;;;;;;29.23;13.55;;;;;;;1.94;100.00;101893.84;4934042;29;20032;-77
2021/01/10 01:36:45;;;;;;;33.38;13.75;;;;;;;1.93;100.00;101891.47;4946352;28;20063;-77
2021/01/10 01:39:11;;;;;;;31.95;14.05;;;;;;;1.90;100.00;101889.34;4934727;29;20047;-77
2021/01/10 01:41:37;;;;;;;35.28;14.00;;;;;;;2.04;100.00;101885.88;4947962;29;20431;-76
2021/01/10 01:44:04;;;;;;;34.78;14.88;;;;;;;2.01;100.00;101881.13;4951127;29;20039;-77
2021/01/10 01:46:34;;;;;;;31.73;14.07;;;;;;;1.84;100.00;101873.41;4945402;29;20110;-77
2021/01/10 01:49:04;;;;;;;34.05;13.18;;;;;;;1.90;100.00;101874.19;4945754;29;20046;-77
2021/01/10 01:51:30;;;;;;;31.45;13.13;;;;;;;2.00;100.00;101879.50;4941275;29;20039;-77
2021/01/10 01:53:58;;;;;;;29.65;13.45;;;;;;;1.98;100.00;101880.81;4934009;29;20042;-77
2021/01/10 01:56:23;;;;;;;31.00;13.18;;;;;;;1.88;100.00;101865.69;4933307;28;20035;-76
2021/01/10 01:58:59;;;;;;;31.08;13.80;;;;;;;1.81;100.00;101871.28;4943949;29;20073;-76
2021/01/10 02:01:26;;;;;;;35.10;14.25;;;;;;;1.73;100.00;101871.81;4926030;29;20036;-76
2021/01/10 02:03:59;;;;;;;36.88;13.88;;;;;;;1.72;100.00;101864.13;4945592;29;20034;-77
2021/01/10 02:06:30;;;;;;;35.13;14.65;;;;;;;1.79;100.00;101869.97;4949400;29;20097;-76
2021/01/10 02:09:01;;;;;;;29.23;13.55;;;;;;;1.71;100.00;101865.97;4932785;29;20039;-77
2021/01/10 02:11:29;;;;;;;31.65;13.60;;;;;;;1.84;100.00;101867.28;4949894;29;20054;-77
2021/01/10 02:13:55;;;;;;;38.55;15.18;;;;;;;1.96;100.00;101867.00;4950785;29;20067;-77
2021/01/10 02:16:20;;;;;;;33.72;14.15;;;;;;;1.82;100.00;101862.25;4950228;29;20063;-77
2021/01/10 02:18:47;;;;;;;34.92;13.95;;;;;;;1.81;100.00;101863.31;4947835;29;20035;-77
2021/01/10 02:21:15;;;;;;;37.92;14.88;;;;;;;2.00;100.00;101862.75;4934702;29;20028;-77
2021/01/10 02:23:43;;;;;;;30.02;13.93;;;;;;;1.76;100.00;101863.31;4937847;28;20101;-77
2021/01/10 02:26:09;;;;;;;34.60;14.90;;;;;;;1.72;100.00;101866.78;4954029;29;20113;-77
2021/01/10 02:28:35;;;;;;;33.75;15.18;;;;;;;1.64;100.00;101860.16;4936631;29;20824;-77
2021/01/10 02:31:03;;;;;;;35.45;15.60;;;;;;;1.82;100.00;101864.91;4939117;29;20066;-77
2021/01/10 02:33:51;;;;;;;36.70;15.27;;;;;;;1.84;100.00;101860.13;4953894;29;20035;-77
2021/01/10 02:36:57;;;;;;;33.78;15.13;;;;;;;1.87;100.00;101863.31;4955479;28;20178;-77
2021/01/10 02:39:36;;;;;;;34.38;15.30;;;;;;;1.64;100.00;101865.47;4938268;29;20508;-77
2021/01/10 02:42:19;;;;;;;32.72;14.30;;;;;;;1.66;100.00;101851.91;4948561;29;20031;-77
2021/01/10 02:45:00;;;;;;;36.38;15.23;;;;;;;1.71;100.00;101855.34;4954323;28;20118;-77
2021/01/10 02:47:27;;;;;;;33.40;15.18;;;;;;;1.77;100.00;101843.69;4955222;28;20023;-77
2021/01/10 02:49:52;;;;;;;36.03;14.93;;;;;;;1.62;100.00;101838.38;4943183;29;20087;-77
2021/01/10 02:52:18;;;;;;;33.10;14.30;;;;;;;1.78;100.00;101842.59;4967099;28;20504;-77
2021/01/10 02:54:43;;;;;;;32.30;14.40;;;;;;;1.65;100.00;101840.50;4950743;29;20031;-77
2021/01/10 02:57:15;;;;;;;33.80;15.00;;;;;;;1.53;100.00;101837.28;4949045;29;20655;-77
2021/01/10 02:59:46;;;;;;;31.35;14.93;;;;;;;1.56;100.00;101834.13;4942774;29;20512;-77
2021/01/10 03:02:13;;;;;;;30.70;13.60;;;;;;;1.69;100.00;101827.47;4955482;28;20068;-77
2021/01/10 03:04:39;;;;;;;31.27;14.25;;;;;;;1.65;100.00;101829.88;4952248;29;20062;-77
2021/01/10 03:07:06;;;;;;;29.02;13.57;;;;;;;1.77;100.00;101845.53;4950472;29;20437;-77
2021/01/10 03:09:32;;;;;;;34.05;14.25;;;;;;;1.74;100.00;101838.13;4946461;29;20035;-77
2021/01/10 03:12:24;;;;;;;31.38;13.68;;;;;;;1.66;100.00;101834.13;4927261;29;20035;-77
2021/01/10 03:14:50;;;;;;;28.63;12.93;;;;;;;1.67;100.00;101826.94;4937467;29;20043;-77
2021/01/10 03:17:37;;;;;;;28.75;13.48;;;;;;;1.63;100.00;101825.88;4951034;29;20051;-77
2021/01/10 03:20:06;;;;;;;32.17;14.18;;;;;;;1.55;100.00;101821.91;4952515;29;20075;-77
2021/01/10 03:22:32;;;;;;;30.10;13.85;;;;;;;1.63;100.00;101817.94;4952493;28;20042;-77
2021/01/10 03:24:58;;;;;;;28.80;14.05;;;;;;;1.25;100.00;101806.00;4953595;29;20035;-77
2021/01/10 03:27:23;;;;;;;31.23;14.20;;;;;;;1.37;100.00;101798.56;4934994;29;20050;-77
2021/01/10 03:29:48;;;;;;;32.70;15.50;;;;;;;1.16;100.00;101799.59;4929413;29;20508;-77
2021/01/10 03:32:14;;;;;;;31.50;15.20;;;;;;;1.12;100.00;101797.75;4936029;29;20034;-77
2021/01/10 03:34:40;;;;;;;31.23;14.35;;;;;;;1.13;100.00;101800.13;4954874;28;20035;-77
2021/01/10 03:37:06;;;;;;;31.65;14.85;;;;;;;1.25;100.00;101806.00;4941618;29;20086;-77
2021/01/10 03:39:32;;;;;;;32.22;14.95;;;;;;;1.28;100.00;101804.69;4936057;28;20504;-77
2021/01/10 03:41:58;;;;;;;33.60;14.95;;;;;;;1.12;100.00;101809.16;4945818;29;20032;-77
2021/01/10 03:44:24;;;;;;;32.65;14.63;;;;;;;1.07;100.00;101816.28;4951062;28;20547;-77
2021/01/10 03:46:50;;;;;;;33.00;14.55;;;;;;;1.13;100.00;101802.78;4934639;28;20042;-77
2021/01/10 03:49:16;;;;;;;36.03;15.52;;;;;;;1.12;100.00;101793.25;4947283;29;20031;-77
2021/01/10 03:51:42;;;;;;;34.22;14.15;;;;;;;1.38;100.00;101797.50;4952535;28;20626;-77
2021/01/10 03:54:08;;;;;;;31.10;14.35;;;;;;;1.33;100.00;101794.84;4951521;29;20082;-77
2021/01/10 03:56:33;;;;;;;31.27;14.00;;;;;;;1.54;100.00;101800.94;4944005;28;20038;-77
2021/01/10 03:59:01;;;;;;;33.42;14.50;;;;;;;1.40;100.00;101798.03;4951754;29;20423;-77
2021/01/10 04:01:27;;;;;;;34.40;15.15;;;;;;;1.33;100.00;101789.56;4952424;29;20529;-77
2021/01/10 04:03:52;;;;;;;37.28;15.82;;;;;;;1.57;100.00;101798.56;4953185;28;20116;-76
2021/01/10 04:06:18;;;;;;;32.53;14.77;;;;;;;1.07;100.00;101787.91;4946357;29;20039;-77
2021/01/10 04:08:47;;;;;;;36.67;15.75;;;;;;;1.39;100.00;101788.50;4949079;29;20035;-77
2021/01/10 04:11:16;;;;;;;35.58;15.18;;;;;;;1.10;100.00;101782.09;4952460;29;20097;-77
2021/01/10 04:13:41;;;;;;;36.78;15.05;;;;;;;1.30;100.00;101790.06;4947556;29;20055;-77
2021/01/10 04:16:07;;;;;;;34.97;15.40;;;;;;;1.13;100.00;101783.41;4950317;29;20062;-77
2021/01/10 04:18:33;;;;;;;31.27;14.55;;;;;;;1.03;100.00;101781.56;4951395;29;20492;-77
2021/01/10 04:21:01;;;;;;;37.80;16.27;;;;;;;1.01;100.00;101785.53;4951121;29;20062;-76
2021/01/10 04:23:26;;;;;;;35.58;15.15;;;;;;;1.07;100.00;101785.28;4932916;29;20040;-77
2021/01/10 04:25:52;;;;;;;34.55;15.38;;;;;;;1.11;100.00;101780.22;4931555;29;20462;-77
2021/01/10 04:28:17;;;;;;;35.80;15.48;;;;;;;1.06;100.00;101785.53;4930862;29;20095;-77
2021/01/10 04:30:43;;;;;;;33.50;14.95;;;;;;;0.85;100.00;101785.50;4937854;29;20046;-77
2021/01/10 04:33:09;;;;;;;35.58;15.45;;;;;;;1.14;100.00;101785.03;4950863;29;20066;-77
2021/01/10 04:35:34;;;;;;;36.45;15.15;;;;;;;1.25;100.00;101792.72;4952390;28;20053;-77
2021/01/10 04:38:00;;;;;;;37.15;15.52;;;;;;;1.26;100.00;101790.88;4950021;29;20415;-77
2021/01/10 04:40:25;;;;;;;32.35;14.52;;;;;;;1.35;100.00;101790.09;4951156;29;20054;-77
2021/01/10 04:42:51;;;;;;;33.17;15.20;;;;;;;1.05;100.00;101792.69;4934401;29;20034;-77
2021/01/10 04:45:17;;;;;;;35.40;15.43;;;;;;;1.13;100.00;101789.53;4953534;28;20452;-77
2021/01/10 04:47:43;;;;;;;32.97;15.07;;;;;;;1.04;100.00;101788.47;4949838;29;20097;-77
2021/01/10 04:50:09;;;;;;;32.00;14.60;;;;;;;1.19;100.00;101799.09;4953246;28;20436;-77
2021/01/10 04:52:37;;;;;;;36.63;15.60;;;;;;;1.53;100.00;101797.50;4949717;29;20396;-76
2021/01/10 04:55:05;;;;;;;41.28;15.57;;;;;;;1.47;100.00;101793.25;4951996;29;20547;-77
2021/01/10 04:57:32;;;;;;;35.15;15.88;;;;;;;1.23;100.00;101789.53;4946964;29;20034;-77
2021/01/10 04:59:58;;;;;;;32.78;14.73;;;;;;;1.30;100.00;101774.16;4946975;29;20476;-76
2021/01/10 05:02:26;;;;;;;32.90;14.13;;;;;;;1.13;100.00;101783.41;4946166;29;20043;-77
2021/01/10 05:04:53;;;;;;;33.08;14.65;;;;;;;1.36;100.00;101780.25;4928766;29;20035;-77
2021/01/10 05:07:19;;;;;;;35.78;15.18;;;;;;;1.59;100.00;101777.84;4949126;29;20114;-77
2021/01/10 05:09:46;;;;;;;37.05;16.05;;;;;;;1.69;100.00;101787.66;4950471;29;20166;-76
2021/01/10 05:12:14;;;;;;;37.40;15.32;;;;;;;1.49;100.00;101780.50;4949518;29;20551;-76
2021/01/10 05:15:02;;;;;;;37.22;16.00;;;;;;;1.60;100.00;101789.28;4933428;29;20182;-76
2021/01/10 05:17:31;;;;;;;35.45;14.52;;;;;;;1.42;100.00;101787.94;4863483;29;20037;-77
2021/01/10 05:19:57;;;;;;;39.55;15.75;;;;;;;1.22;100.00;101787.94;4873569;29;20053;-77
2021/01/10 05:22:22;;;;;;;35.78;15.32;;;;;;;1.39;100.00;101783.19;4873030;29;20619;-77
2021/01/10 05:24:48;;;;;;;40.15;15.88;;;;;;;1.54;100.00;101780.53;4875170;29;20044;-76
2021/01/10 05:27:14;;;;;;;39.47;15.25;;;;;;;1.64;100.00;101785.03;4874284;29;20032;-76
2021/01/10 05:29:43;;;;;;;39.72;16.70;;;;;;;1.25;100.00;101771.50;4892664;29;20086;-76
2021/01/10 05:32:10;;;;;;;39.72;15.70;;;;;;;1.58;100.00;101776.28;4871334;29;20136;-77
2021/01/10 05:34:36;;;;;;;38.67;15.80;;;;;;;1.38;100.00;101776.28;4876892;29;20172;-76
2021/01/10 05:37:15;;;;;;;41.55;16.20;;;;;;;1.43;100.00;101772.84;4890883;29;20561;-77
2021/01/10 05:39:45;;;;;;;39.55;16.80;;;;;;;1.25;100.00;101776.00;4858509;29;20044;-77
2021/01/10 05:42:13;;;;;;;42.95;16.02;;;;;;;1.39;100.00;101766.47;4870624;29;20653;-77
2021/01/10 05:44:39;;;;;;;40.53;16.45;;;;;;;1.47;100.00;101766.72;4860082;29;20037;-77
2021/01/10 05:47:12;;;;;;;41.97;17.17;;;;;;;1.55;100.00;101768.03;4892085;29;20052;-77
2021/01/10 05:49:48;;;;;;;39.90;15.57;;;;;;;1.43;100.00;101770.97;4874238;29;20063;-77
2021/01/10 05:52:34;;;;;;;42.75;16.95;;;;;;;1.50;100.00;101757.44;4877933;29;20040;-77
2021/01/10 05:55:08;;;;;;;40.92;16.67;;;;;;;1.33;100.00;101751.63;4877648;29;20592;-77
2021/01/10 05:57:34;;;;;;;42.58;16.30;;;;;;;1.37;100.00;101753.47;4888068;29;20076;-77
2021/01/10 06:00:01;;;;;;;44.13;17.27;;;;;;;1.44;100.00;101756.66;4897364;29;20060;-76
2021/01/10 06:02:27;;;;;;;45.33;17.42;;;;;;;1.59;100.00;101755.81;4891901;29;20040;-77
2021/01/10 06:05:13;;;;;;;40.75;16.48;;;;;;;1.42;100.00;101756.13;4911456;29;20040;-77
2021/01/10 06:07:41;;;;;;;41.33;16.63;;;;;;;1.09;100.00;101759.28;4902355;29;20032;-77
2021/01/10 06:10:08;;;;;;;40.53;16.70;;;;;;;1.19;100.00;101755.84;4900563;29;20039;-77
2021/01/10 06:12:34;;;;;;;42.92;16.58;;;;;;;1.34;100.00;101754.00;4910221;29;20063;-77
2021/01/10 06:15:17;;;;;;;43.92;16.90;;;;;;;1.34;100.00;101759.28;4902759;29;20047;-77
2021/01/10 06:17:47;;;;;;;39.92;16.63;;;;;;;1.18;100.00;101755.03;4884090;29;20557;-77
2021/01/10 06:20:23;;;;;;;44.72;17.02;;;;;;;1.00;100.00;101762.72;4904422;29;20532;-77
2021/01/10 06:22:53;;;;;;;41.53;15.90;;;;;;;1.34;100.00;101753.19;4909192;29;20135;-77
2021/01/10 06:25:27;;;;;;;40.30;16.50;;;;;;;1.25;100.00;101760.09;4911845;29;20044;-77
2021/01/10 06:28:02;;;;;;;41.40;16.15;;;;;;;1.05;100.00;101755.56;4894221;29;20564;-77
2021/01/10 06:30:32;;;;;;;44.95;16.98;;;;;;;1.04;100.00;101759.28;4911260;29;20071;-77
2021/01/10 06:33:20;;;;;;;40.58;15.40;;;;;;;1.30;100.00;101757.44;4940500;29;20073;-77
2021/01/10 06:35:50;;;;;;;40.55;16.35;;;;;;;1.24;100.00;101759.28;4949579;29;20035;-77
2021/01/10 06:38:22;;;;;;;44.08;16.60;;;;;;;1.43;100.00;101757.69;4949485;29;20070;-77
2021/01/10 06:41:18;;;;;;;45.08;16.05;;;;;;;1.05;100.00;101760.88;4948841;29;20039;-76
2021/01/10 06:43:48;;;;;;;42.60;16.20;;;;;;;0.95;100.00;101758.19;4926627;29;20043;-77
2021/01/10 06:46:14;;;;;;;44.67;16.42;;;;;;;1.04;100.00;101754.00;4947845;29;20428;-76
2021/01/10 06:48:40;;;;;;;41.42;17.17;;;;;;;1.14;100.00;101751.34;4950592;29;20027;-77
2021/01/10 06:51:06;;;;;;;44.20;16.98;;;;;;;1.38;100.00;101757.72;4945079;29;20118;-77
2021/01/10 06:53:32;;;;;;;40.10;15.20;;;;;;;1.36;100.00;101759.81;4947210;29;20106;-77
2021/01/10 06:56:00;;;;;;;43.08;16.08;;;;;;;1.33;100.00;101757.72;4934618;28;20043;-77
2021/01/10 06:58:25;;;;;;;41.97;16.10;;;;;;;1.52;100.00;101752.66;4927811;29;20082;-77
2021/01/10 07:00:56;;;;;;;41.72;16.33;;;;;;;1.41;100.00;101751.09;4949460;29;20451;-77
2021/01/10 07:03:23;;;;;;;48.05;17.27;;;;;;;1.29;100.00;101751.34;4938263;29;20035;-77
2021/01/10 07:06:06;;;;;;;44.00;16.70;;;;;;;1.24;100.00;101738.06;4943947;29;20038;-77
2021/01/10 07:08:42;;;;;;;40.08;15.77;;;;;;;1.08;100.00;101754.25;4933282;28;20524;-77
2021/01/10 07:11:20;;;;;;;43.72;16.63;;;;;;;1.35;100.00;101747.63;4947894;29;20523;-77
2021/01/10 07:13:51;;;;;;;42.00;16.23;;;;;;;1.25;100.00;101747.63;4948815;29;20096;-77
2021/01/10 07:16:21;;;;;;;40.78;16.23;;;;;;;1.17;100.00;101747.34;4931981;29;20031;-77
2021/01/10 07:19:07;;;;;;;40.70;15.38;;;;;;;1.23;100.00;101751.59;4951641;29;20033;-77
2021/01/10 07:21:36;;;;;;;40.97;15.88;;;;;;;1.31;100.00;101748.44;4948352;29;20039;-76
2021/01/10 07:26:56;;;;;;;43.75;16.08;;;;;;;1.33;100.00;101738.34;4948375;29;20382;-77
2021/01/10 07:29:33;;;;;;;47.70;17.08;;;;;;;1.42;100.00;101742.84;4936551;29;20031;-77
2021/01/10 07:32:07;;;;;;;46.72;17.00;;;;;;;1.33;100.00;101739.16;4956451;28;20543;-77
2021/01/10 07:34:34;;;;;;;46.45;17.42;;;;;;;1.43;100.00;101739.13;4935390;29;20506;-77
2021/01/10 07:37:04;;;;;;;42.65;17.40;;;;;;;1.20;100.00;101733.59;4945046;29;20110;-77
2021/01/10 07:39:36;;;;;;;40.00;15.65;;;;;;;1.36;100.00;101740.44;4946474;29;20102;-77
2021/01/10 07:42:08;;;;;;;47.75;18.70;;;;;;;1.44;100.00;101737.28;4942912;29;20122;-77
2021/01/10 07:44:54;;;;;;;43.08;16.73;;;;;;;1.33;100.00;101741.81;4933866;29;20097;-77
2021/01/10 07:47:40;;;;;;;40.53;16.83;;;;;;;1.46;100.00;101732.50;4936869;29;20034;-77
2021/01/10 07:50:21;;;;;;;42.75;16.42;;;;;;;1.39;100.00;101745.25;4932110;29;20066;-77
2021/01/10 07:52:58;;;;;;;43.15;15.68;;;;;;;1.19;100.00;101746.03;4940203;29;20038;-77
2021/01/10 07:55:24;;;;;;;36.03;15.15;;;;;;;1.23;100.00;101741.81;4952624;28;20035;-77
2021/01/10 07:58:10;;;;;;;46.28;16.58;;;;;;;1.09;100.00;101734.63;4937574;29;20039;-77
2021/01/10 08:00:49;;;;;;;40.05;15.75;;;;;;;1.45;100.00;101739.66;4925389;29;20048;-77
2021/01/10 08:03:23;;;;;;;43.42;16.63;;;;;;;1.64;100.00;101746.03;4952345;28;20503;-76
2021/01/10 08:06:14;;;;;;;44.33;16.40;;;;;;;1.67;100.00;101750.78;4948855;29;20052;-77
2021/01/10 08:08:45;;;;;;;44.85;16.08;;;;;;;1.65;100.00;101747.59;4935826;29;20043;-78
2021/01/10 08:11:31;;;;;;;39.50;16.10;;;;;;;1.59;100.00;101753.97;4934328;29;20051;-77
2021/01/10 08:13:57;;;;;;;40.92;16.23;;;;;;;1.63;100.00;101741.75;4916314;29;20044;-77
2021/01/10 08:16:25;;;;;;;43.28;16.23;;;;;;;1.65;100.00;101746.78;4915093;29;20481;-77
2021/01/10 08:18:52;;;;;;;40.42;15.82;;;;;;;1.66;100.00;101749.22;4900112;29;20139;-77
2021/01/10 08:21:18;;;;;;;37.58;15.80;;;;;;;1.78;100.00;101748.91;4893339;29;20095;-77
2021/01/10 08:23:53;;;;;;;44.53;15.27;;;;;;;1.61;100.00;101754.50;4895548;29;20086;-77
2021/01/10 08:26:19;;;;;;;37.72;14.05;;;;;;;1.74;100.00;101761.13;4911633;29;20820;-77
2021/01/10 08:28:47;;;;;;;36.55;14.32;;;;;;;1.92;100.00;101754.47;4894398;29;20020;-77
2021/01/10 08:31:33;;;;;;;37.20;14.45;;;;;;;1.85;100.00;101749.41;4893413;29;20129;-77
2021/01/10 08:34:03;;;;;;;34.45;14.25;;;;;;;1.72;100.00;101753.41;4858352;29;20049;-77
2021/01/10 08:36:29;;;;;;;36.28;14.52;;;;;;;1.44;100.00;101756.66;4840942;29;20128;-77
2021/01/10 08:38:59;;;;;;;35.35;14.35;;;;;;;1.82;100.00;101755.25;4840394;29;20057;-77
2021/01/10 08:41:33;;;;;;;40.95;14.88;;;;;;;1.63;100.00;101751.56;4824496;29;20048;-76
2021/01/10 08:44:01;;;;;;;33.03;14.32;;;;;;;1.78;100.00;101756.88;4838724;29;20062;-77
2021/01/10 08:46:29;;;;;;;40.75;15.57;;;;;;;1.78;100.00;101752.34;4856002;29;20077;-76
2021/01/10 08:49:15;;;;;;;37.30;14.60;;;;;;;1.88;100.00;101753.41;4854584;29;20033;-77
2021/01/10 08:51:43;;;;;;;40.85;16.15;;;;;;;2.17;100.00;101759.69;4797092;29;20118;-77
2021/01/10 08:54:23;;;;;;;43.42;17.33;;;;;;;2.09;100.00;101754.94;4784615;29;20565;-77
2021/01/10 08:56:56;;;;;;;42.55;18.05;;;;;;;2.23;100.00;101751.41;4797124;29;20532;-77
2021/01/10 08:59:23;;;;;;;40.13;17.17;;;;;;;2.22;100.00;101760.47;4777703;29;20051;-77
2021/01/10 09:01:49;;;;;;;38.95;15.65;;;;;;;2.22;100.00;101759.66;4782424;29;20211;-77
2021/01/10 09:04:16;;;;;;;38.10;16.05;;;;;;;2.08;100.00;101766.63;4804243;29;20051;-77
2021/01/10 09:06:42;;;;;;;35.63;14.70;;;;;;;2.23;100.00;101761.25;4784514;29;20150;-77
2021/01/10 09:09:32;;;;;;;33.03;14.32;;;;;;;2.05;100.00;101764.50;4803639;29;20137;-78
2021/01/10 09:12:06;;;;;;;29.10;13.15;;;;;;;2.06;100.00;101758.13;4830288;29;20047;-77
2021/01/10 09:14:38;;;;;;;31.02;13.05;;;;;;;2.17;100.00;101762.34;4844431;29;20037;-77
2021/01/10 09:17:05;;;;;;;28.90;13.40;;;;;;;2.78;100.00;101762.84;4847020;29;20041;-78
2021/01/10 09:19:34;;;;;;;29.13;12.27;;;;;;;3.03;100.00;101755.50;4825177;29;20069;-78
2021/01/10 09:22:01;;;;;;;31.60;13.30;;;;;;;2.81;100.00;101752.44;4843592;29;20058;-77
2021/01/10 09:24:48;;;;;;;25.38;11.57;;;;;;;2.85;100.00;101747.38;4861394;29;20124;-78
2021/01/10 09:27:15;;;;;;;31.10;13.60;;;;;;;2.90;100.00;101750.81;4784271;30;20043;-77
2021/01/10 09:29:44;;;;;;;27.13;12.13;;;;;;;3.20;100.00;101747.13;4847785;29;20097;-78
2021/01/10 09:32:10;;;;;;;33.58;13.90;;;;;;;2.94;100.00;101756.38;4862350;29;20140;-77
2021/01/10 09:34:36;;;;;;;28.95;12.95;;;;;;;2.98;100.00;101744.88;4864892;29;20052;-78
2021/01/10 09:37:06;;;;;;;29.33;12.77;;;;;;;3.17;100.00;101751.16;4860723;29;20094;-78
2021/01/10 09:39:43;;;;;;;34.07;14.43;;;;;;;2.90;100.00;101747.34;4877461;29;20056;-77
2021/01/10 09:42:10;;;;;;;29.85;13.27;;;;;;;2.83;100.00;101752.97;4839112;29;20127;-76
2021/01/10 09:44:35;;;;;;;25.92;12.70;;;;;;;2.97;100.00;101755.81;4860103;29;20065;-78
2021/01/10 09:47:01;;;;;;;32.75;12.60;;;;;;;3.08;100.00;101757.34;4844335;29;20034;-77
2021/01/10 09:49:30;;;;;;;26.13;11.93;;;;;;;2.87;100.00;101754.00;4860108;29;20040;-78
2021/01/10 09:51:56;;;;;;;27.15;11.43;;;;;;;3.08;100.00;101752.81;4853459;29;20049;-78
2021/01/10 09:54:24;;;;;;;28.05;12.48;;;;;;;3.28;100.00;101760.66;4877691;29;20060;-78
2021/01/10 09:56:54;;;;;;;26.35;11.30;;;;;;;3.09;100.00;101761.59;4860384;29;20072;-78
2021/01/10 09:59:44;;;;;;;27.00;11.93;;;;;;;3.19;100.00;101759.66;4862026;29;20147;-78
2021/01/10 10:02:17;;;;;;;25.67;11.43;;;;;;;3.24;100.00;101764.13;4872441;29;20041;-78
2021/01/10 10:04:52;;;;;;;26.10;11.75;;;;;;;3.42;100.00;101763.47;4914382;29;20051;-78
2021/01/10 10:07:34;;;;;;;28.75;11.65;;;;;;;3.46;100.00;101765.28;4952562;28;20042;-78
2021/01/10 10:10:00;;;;;;;31.52;13.45;;;;;;;3.44;100.00;101767.44;4940556;29;20042;-76
2021/01/10 10:12:26;;;;;;;42.80;13.00;;;;;;;3.36;100.00;101757.38;4934665;29;20030;-77
2021/01/10 10:14:55;;;;;;;28.48;11.98;;;;;;;3.50;100.00;101755.66;4955041;29;20043;-78
2021/01/10 10:17:23;;;;;;;27.63;12.40;;;;;;;3.50;100.00;101750.31;4953026;28;20034;-76
2021/01/10 10:19:48;;;;;;;28.70;12.15;;;;;;;3.67;100.00;101757.91;4950555;29;20680;-79
2021/01/10 10:22:24;;;;;;;34.55;13.38;;;;;;;3.64;100.00;101748.59;4950572;29;20039;-76
2021/01/10 10:24:51;;;;;;;28.60;12.75;;;;;;;3.59;100.00;101753.19;4952395;28;20094;-77
2021/01/10 10:27:17;;;;;;;34.47;13.20;;;;;;;3.60;100.00;101746.81;4935680;29;20078;-78
2021/01/10 10:29:42;;;;;;;36.45;14.57;;;;;;;3.60;100.00;101747.56;4952975;29;20031;-78
2021/01/10 10:32:08;;;;;;;36.72;15.35;;;;;;;3.81;100.00;101742.06;4935951;29;20043;-75
2021/01/10 10:34:35;;;;;;;32.40;13.40;;;;;;;3.79;100.00;101733.56;4952048;29;20038;-78
2021/01/10 10:37:01;;;;;;;35.22;15.27;;;;;;;3.68;100.00;101722.19;4924373;29;20094;-78
2021/01/10 10:39:26;;;;;;;32.78;14.65;;;;;;;3.49;100.00;101722.13;4944937;29;20066;-78
2021/01/10 10:41:52;;;;;;;30.63;13.27;;;;;;;3.58;100.00;101725.00;4939091;29;20035;-77
2021/01/10 10:44:18;;;;;;;35.50;14.20;;;;;;;3.71;100.00;101710.19;4954996;28;20039;-78
2021/01/10 10:46:44;;;;;;;30.58;13.27;;;;;;;3.88;100.00;101724.66;4938104;29;20070;-80
2021/01/10 10:49:10;;;;;;;32.25;13.55;;;;;;;3.93;100.00;101721.16;4957160;29;20125;-76
2021/01/10 10:51:36;;;;;;;32.25;13.00;;;;;;;3.87;100.00;101712.41;4939927;29;20051;-78
2021/01/10 10:54:04;;;;;;;29.58;12.70;;;;;;;4.01;100.00;101720.50;4956211;29;20035;-77
2021/01/10 10:56:36;;;;;;;30.98;13.02;;;;;;;3.94;100.00;101717.41;4939316;29;20031;-76
2021/01/10 10:59:05;;;;;;;31.65;13.65;;;;;;;3.80;100.00;101716.47;4957188;29;20102;-78
2021/01/10 11:01:38;;;;;;;28.67;12.65;;;;;;;3.93;100.00;101715.81;4956354;29;20043;-78
2021/01/10 11:04:24;;;;;;;31.02;13.52;;;;;;;3.91;100.00;101713.44;4954880;29;20053;-77
2021/01/10 11:06:50;;;;;;;34.47;13.32;;;;;;;4.05;100.00;101710.88;4847603;29;20057;-77
2021/01/10 11:09:16;;;;;;;32.20;13.98;;;;;;;4.09;100.00;101699.38;4858819;29;20097;-79
2021/01/10 11:11:45;;;;;;;32.58;13.52;;;;;;;4.07;100.00;101700.72;4865690;29;20629;-76
2021/01/10 11:14:11;;;;;;;30.77;12.65;;;;;;;3.91;100.00;101702.00;4863517;29;20045;-78
2021/01/10 11:16:38;;;;;;;32.65;13.93;;;;;;;3.92;100.00;101698.25;4879870;29;20037;-79
2021/01/10 11:19:07;;;;;;;30.25;12.77;;;;;;;3.83;100.00;101697.28;4875430;29;20063;-79
2021/01/10 11:21:40;;;;;;;32.25;13.95;;;;;;;3.76;100.00;101694.94;4866077;29;20045;-77
2021/01/10 11:24:07;;;;;;;31.95;13.52;;;;;;;4.02;100.00;101690.13;4870912;29;20073;-77